createdAt,value
2022-07-31T00:00:14.311Z,22.54
2022-07-31T00:02:39.994Z,22.54
2022-07-31T00:05:06.107Z,22.54
2022-07-31T00:07:31.792Z,22.56
2022-07-31T00:09:57.589Z,22.54
2022-07-31T00:12:23.373Z,22.55
2022-07-31T00:14:48.996Z,22.54
2022-07-31T00:17:14.875Z,22.56
2022-07-31T00:19:41.696Z,22.54
2022-07-31T00:22:08.603Z,22.56
2022-07-31T00:24:34.263Z,22.54
2022-07-31T00:27:00.194Z,22.54
2022-07-31T00:29:26.005Z,22.54
2022-07-31T00:31:51.648Z,22.56
2022-07-31T00:34:17.273Z,22.54
2022-07-31T00:36:42.911Z,22.54
2022-07-31T00:39:09.377Z,22.55
2022-07-31T00:41:38.678Z,22.54
2022-07-31T00:44:04.914Z,22.54
2022-07-31T00:46:38.264Z,22.55
2022-07-31T00:49:09.157Z,22.56
2022-07-31T00:51:35.896Z,22.54
2022-07-31T00:54:01.610Z,22.55
2022-07-31T00:56:27.446Z,22.55
2022-07-31T00:58:54.457Z,22.55
2022-07-31T01:01:21.669Z,22.56
2022-07-31T01:03:47.399Z,22.54
2022-07-31T01:06:13.200Z,22.54
2022-07-31T01:08:39.080Z,22.56
2022-07-31T01:11:09.296Z,22.56
2022-07-31T01:13:43.375Z,22.54
2022-07-31T01:16:10.338Z,22.55
2022-07-31T01:18:37.469Z,22.55
2022-07-31T01:21:06.528Z,22.54
2022-07-31T01:23:54.835Z,22.56
2022-07-31T01:26:34.511Z,22.55
2022-07-31T01:29:09.133Z,22.55
2022-07-31T01:31:53.295Z,22.56
2022-07-31T01:34:27.037Z,22.54
2022-07-31T01:36:58.219Z,22.54
2022-07-31T01:39:24.608Z,22.55
2022-07-31T01:41:52.450Z,22.54
2022-07-31T01:44:18.520Z,22.55
2022-07-31T01:46:44.847Z,22.56
2022-07-31T01:49:11.565Z,22.56
2022-07-31T01:51:38.260Z,22.56
2022-07-31T01:54:04.301Z,22.55
2022-07-31T01:56:30.655Z,22.56
2022-07-31T01:58:58.562Z,22.54
2022-07-31T02:01:27.541Z,22.54
2022-07-31T02:03:56.150Z,22.54
2022-07-31T02:06:22.562Z,22.54
2022-07-31T02:08:50.386Z,22.56
2022-07-31T02:11:18.115Z,22.56
2022-07-31T02:13:45.119Z,22.54
2022-07-31T02:16:12.194Z,22.54
2022-07-31T02:18:38.264Z,22.55
2022-07-31T02:21:03.989Z,22.56
2022-07-31T02:23:29.656Z,22.55
2022-07-31T02:25:55.497Z,22.55
2022-07-31T02:28:22.198Z,22.54
2022-07-31T02:30:49.028Z,22.56
2022-07-31T02:33:20.488Z,22.55
2022-07-31T02:35:48.409Z,22.56
2022-07-31T02:38:22.337Z,22.55
2022-07-31T02:40:50.647Z,22.55
2022-07-31T02:43:17.146Z,22.55
2022-07-31T02:45:43.174Z,22.56
2022-07-31T02:48:08.901Z,22.55
2022-07-31T02:50:35.230Z,22.55
2022-07-31T02:53:01.265Z,22.55
2022-07-31T02:55:27.033Z,22.55
2022-07-31T02:57:52.686Z,22.54
2022-07-31T03:00:22.041Z,22.54
2022-07-31T03:02:49.260Z,22.55
2022-07-31T03:05:15.537Z,22.54
2022-07-31T03:07:42.101Z,22.54
2022-07-31T03:10:10.146Z,22.56
2022-07-31T03:12:39.037Z,22.54
2022-07-31T03:15:08.986Z,22.55
2022-07-31T03:17:40.670Z,22.55
2022-07-31T03:20:07.761Z,22.54
2022-07-31T03:22:33.822Z,22.54
2022-07-31T03:25:00.132Z,22.54
2022-07-31T03:27:25.985Z,22.54
2022-07-31T03:29:51.638Z,22.54
2022-07-31T03:32:17.257Z,22.56
2022-07-31T03:34:42.889Z,22.54
2022-07-31T03:37:09.433Z,22.55
2022-07-31T03:39:35.053Z,22.54
2022-07-31T03:42:01.807Z,22.54
2022-07-31T03:44:27.755Z,22.54
2022-07-31T03:46:53.653Z,22.55
2022-07-31T03:49:19.640Z,22.54
2022-07-31T03:51:45.453Z,22.54
2022-07-31T03:54:11.166Z,22.54
2022-07-31T03:56:37.379Z,22.55
2022-07-31T03:59:03.385Z,22.55
2022-07-31T04:01:58.232Z,22.54
2022-07-31T04:04:16.937Z,22.54
2022-07-31T04:06:44.006Z,22.54
2022-07-31T04:09:15.391Z,22.56
2022-07-31T04:11:44.801Z,22.53
2022-07-31T04:14:10.431Z,22.54
2022-07-31T04:16:36.060Z,22.55
2022-07-31T04:19:01.722Z,22.54
2022-07-31T04:21:27.340Z,22.55
2022-07-31T04:23:52.953Z,22.54
2022-07-31T04:26:25.465Z,22.54
2022-07-31T04:28:51.929Z,22.54
2022-07-31T04:31:17.550Z,22.54
2022-07-31T04:33:48.331Z,22.54
2022-07-31T04:36:29.269Z,22.53
2022-07-31T04:38:55.852Z,22.54
2022-07-31T04:41:21.537Z,22.54
2022-07-31T04:43:47.158Z,22.54
2022-07-31T04:46:17.342Z,22.54
2022-07-31T04:48:43.531Z,22.53
2022-07-31T04:51:18.689Z,22.54
2022-07-31T04:53:45.201Z,22.55
2022-07-31T04:56:31.030Z,22.54
2022-07-31T04:58:56.762Z,22.54
2022-07-31T05:01:22.451Z,22.54
2022-07-31T05:03:48.137Z,22.54
2022-07-31T05:06:13.801Z,22.56
2022-07-31T05:08:39.531Z,22.54
2022-07-31T05:11:25.665Z,22.55
2022-07-31T05:13:53.966Z,22.55
2022-07-31T05:16:19.723Z,22.54
2022-07-31T05:18:45.894Z,22.54
2022-07-31T05:21:12.590Z,22.56
2022-07-31T05:23:39.406Z,22.54
2022-07-31T05:26:05.081Z,22.54
2022-07-31T05:28:30.814Z,22.55
2022-07-31T05:30:56.786Z,22.54
2022-07-31T05:33:22.700Z,22.56
2022-07-31T05:35:48.389Z,22.54
2022-07-31T05:38:14.103Z,22.56
2022-07-31T05:40:39.735Z,22.54
2022-07-31T05:43:05.381Z,22.54
2022-07-31T05:45:31.431Z,22.55
2022-07-31T05:47:57.089Z,22.54
2022-07-31T05:50:22.746Z,22.54
2022-07-31T05:52:49.546Z,22.55
2022-07-31T05:55:15.348Z,22.54
2022-07-31T05:57:41.255Z,22.54
2022-07-31T06:00:07.939Z,22.55
2022-07-31T06:02:34.998Z,22.54
2022-07-31T06:05:01.162Z,22.54
2022-07-31T06:07:27.495Z,22.54
2022-07-31T06:09:53.198Z,22.54
2022-07-31T06:12:18.971Z,22.54
2022-07-31T06:14:45.177Z,22.54
2022-07-31T06:17:10.820Z,22.54
2022-07-31T06:19:36.518Z,22.54
2022-07-31T06:22:02.336Z,22.55
2022-07-31T06:24:28.118Z,22.54
2022-07-31T06:26:58.678Z,22.54
2022-07-31T06:29:41.146Z,22.55
2022-07-31T06:32:08.083Z,22.55
2022-07-31T06:34:33.829Z,22.56
2022-07-31T06:36:59.634Z,22.55
2022-07-31T06:39:25.280Z,22.55
2022-07-31T06:42:10.922Z,22.54
2022-07-31T06:44:45.878Z,22.55
2022-07-31T06:47:16.078Z,22.56
2022-07-31T06:49:42.044Z,22.55
2022-07-31T06:52:07.715Z,22.54
2022-07-31T06:54:33.402Z,22.54
2022-07-31T06:56:59.070Z,22.54
2022-07-31T06:59:40.606Z,22.54
2022-07-31T07:02:07.235Z,22.56
2022-07-31T07:05:05.275Z,22.56
2022-07-31T07:07:18.964Z,22.54
2022-07-31T07:09:44.584Z,22.54
2022-07-31T07:12:10.214Z,22.54
2022-07-31T07:14:43.040Z,22.55
2022-07-31T07:17:08.679Z,22.55
2022-07-31T07:19:34.290Z,22.54
2022-07-31T07:21:59.907Z,22.56
2022-07-31T07:24:25.566Z,22.56
2022-07-31T07:26:51.194Z,22.56
2022-07-31T07:29:17.819Z,22.56
2022-07-31T07:31:43.730Z,22.54
2022-07-31T07:34:09.354Z,22.55
2022-07-31T07:36:35.001Z,22.56
2022-07-31T07:39:01.014Z,22.54
2022-07-31T07:41:26.647Z,22.56
2022-07-31T07:43:53.202Z,22.56
2022-07-31T07:46:20.815Z,22.55
2022-07-31T07:48:46.478Z,22.54
2022-07-31T07:51:12.754Z,22.56
2022-07-31T07:53:39.550Z,22.54
2022-07-31T07:56:05.220Z,22.54
2022-07-31T07:58:30.856Z,22.55
2022-07-31T08:00:56.583Z,22.55
2022-07-31T08:03:49.372Z,22.56
2022-07-31T08:06:07.814Z,22.54
2022-07-31T08:08:35.714Z,22.56
2022-07-31T08:11:02.659Z,22.54
2022-07-31T08:13:28.487Z,22.56
2022-07-31T08:15:54.349Z,22.54
2022-07-31T08:18:20.058Z,22.54
2022-07-31T08:20:45.703Z,22.55
2022-07-31T08:23:11.846Z,22.56
2022-07-31T08:25:43.851Z,22.55
2022-07-31T08:28:13.800Z,22.56
2022-07-31T08:30:45.067Z,22.54
2022-07-31T08:33:11.157Z,22.55
2022-07-31T08:35:36.835Z,22.56
2022-07-31T08:38:04.722Z,22.57
2022-07-31T08:40:30.551Z,22.54
2022-07-31T08:42:57.051Z,22.54
2022-07-31T08:45:27.159Z,22.55
2022-07-31T08:47:54.830Z,22.55
2022-07-31T08:50:20.595Z,22.55
2022-07-31T08:52:48.626Z,22.56
2022-07-31T08:55:24.846Z,22.56
2022-07-31T08:58:00.579Z,22.56
2022-07-31T09:00:27.933Z,22.56
2022-07-31T09:02:54.235Z,22.56
2022-07-31T09:05:20.869Z,22.55
2022-07-31T09:07:46.503Z,22.55
2022-07-31T09:10:27.813Z,22.56
2022-07-31T09:12:54.574Z,22.56
2022-07-31T09:15:21.899Z,22.56
2022-07-31T09:17:50.673Z,22.56
2022-07-31T09:20:22.527Z,22.55
2022-07-31T09:22:54.734Z,22.56
2022-07-31T09:25:20.351Z,22.55
2022-07-31T09:27:47.094Z,22.56
2022-07-31T09:30:13.428Z,22.56
2022-07-31T09:32:39.064Z,22.54
2022-07-31T09:35:08.170Z,22.54
2022-07-31T09:37:33.869Z,22.56
2022-07-31T09:39:59.518Z,22.57
2022-07-31T09:42:35.150Z,22.56
2022-07-31T09:45:01.130Z,22.54
2022-07-31T09:47:29.219Z,22.56
2022-07-31T09:49:57.639Z,22.57
2022-07-31T09:52:23.819Z,22.56
2022-07-31T09:55:01.067Z,22.55
2022-07-31T09:57:26.819Z,22.56
2022-07-31T09:59:52.443Z,22.54
2022-07-31T10:02:19.322Z,22.54
2022-07-31T10:04:46.895Z,22.54
2022-07-31T10:07:31.687Z,22.56
2022-07-31T10:09:59.434Z,22.56
2022-07-31T10:12:28.007Z,22.56
2022-07-31T10:14:55.339Z,22.56
2022-07-31T10:17:24.690Z,22.56
2022-07-31T10:19:50.812Z,22.56
2022-07-31T10:22:19.130Z,22.56
2022-07-31T10:24:47.058Z,22.56
2022-07-31T10:27:13.886Z,22.54
2022-07-31T10:29:39.813Z,22.54
2022-07-31T10:32:06.809Z,22.54
2022-07-31T10:34:33.219Z,22.55
2022-07-31T10:37:11.155Z,22.54
2022-07-31T10:39:54.967Z,22.57
2022-07-31T10:43:00.986Z,22.56
2022-07-31T10:45:30.955Z,22.56
2022-07-31T10:47:58.267Z,22.56
2022-07-31T10:50:25.134Z,22.56
2022-07-31T10:52:51.021Z,22.55
2022-07-31T10:55:21.563Z,22.56
2022-07-31T10:57:56.052Z,22.56
2022-07-31T11:00:28.265Z,22.56
2022-07-31T11:02:55.550Z,22.56
2022-07-31T11:05:22.461Z,22.56
2022-07-31T11:08:00.362Z,22.57
2022-07-31T11:10:26.214Z,22.57
2022-07-31T11:13:10.153Z,22.56
2022-07-31T11:15:36.666Z,22.56
2022-07-31T11:18:22.631Z,22.56
2022-07-31T11:21:13.331Z,22.56
2022-07-31T11:23:55.935Z,22.56
2022-07-31T11:26:32.787Z,22.56
2022-07-31T11:30:02.013Z,22.55
2022-07-31T11:31:52.812Z,22.57
2022-07-31T11:34:18.475Z,22.56
2022-07-31T11:36:46.965Z,22.56
2022-07-31T11:39:15.853Z,22.55
2022-07-31T11:41:44.418Z,22.56
2022-07-31T11:44:10.818Z,22.57
2022-07-31T11:46:37.198Z,22.56
2022-07-31T11:49:04.103Z,22.56
2022-07-31T11:51:30.183Z,22.57
2022-07-31T11:53:57.007Z,22.56
2022-07-31T11:56:24.914Z,22.57
2022-07-31T11:58:53.372Z,22.56
2022-07-31T12:01:24.755Z,22.56
2022-07-31T12:03:51.237Z,22.56
2022-07-31T12:06:19.390Z,22.56
2022-07-31T12:08:46.798Z,22.56
2022-07-31T12:11:13.427Z,22.56
2022-07-31T12:13:39.065Z,22.55
2022-07-31T12:16:07.170Z,22.55
2022-07-31T12:18:53.197Z,22.56
2022-07-31T12:21:19.715Z,22.56
2022-07-31T12:23:47.564Z,22.56
2022-07-31T12:26:22.715Z,22.57
2022-07-31T12:29:05.658Z,22.57
2022-07-31T12:31:47.581Z,22.56
2022-07-31T12:34:38.061Z,22.56
2022-07-31T12:37:14.027Z,22.56
2022-07-31T12:39:59.696Z,22.56
2022-07-31T12:42:31.234Z,22.56
2022-07-31T12:45:01.048Z,22.56
2022-07-31T12:47:44.381Z,22.56
2022-07-31T12:50:16.750Z,22.57
2022-07-31T12:52:42.645Z,22.56
2022-07-31T12:55:09.433Z,22.57
2022-07-31T12:57:35.077Z,22.56
2022-07-31T13:00:07.802Z,22.56
2022-07-31T13:02:35.757Z,22.57
2022-07-31T13:05:01.374Z,22.57
2022-07-31T13:07:27.156Z,22.57
2022-07-31T13:10:20.144Z,22.56
2022-07-31T13:12:38.398Z,22.55
2022-07-31T13:15:04.197Z,22.56
2022-07-31T13:17:29.831Z,22.56
2022-07-31T13:19:55.479Z,22.56
2022-07-31T13:22:21.118Z,22.55
2022-07-31T13:24:46.741Z,22.56
2022-07-31T13:27:12.373Z,22.56
2022-07-31T13:29:38.041Z,22.56
2022-07-31T13:32:03.886Z,22.57
2022-07-31T13:34:29.525Z,22.57
2022-07-31T13:36:55.931Z,22.56
2022-07-31T13:39:21.692Z,22.56
2022-07-31T13:41:47.312Z,22.56
2022-07-31T13:44:14.063Z,22.56
2022-07-31T13:46:39.760Z,22.57
2022-07-31T13:49:09.531Z,22.57
2022-07-31T13:51:36.781Z,22.56
2022-07-31T13:54:02.519Z,22.56
2022-07-31T13:56:41.783Z,22.56
2022-07-31T13:59:11.386Z,22.56
2022-07-31T14:02:13.018Z,22.56
2022-07-31T14:04:23.627Z,22.56
2022-07-31T14:06:49.765Z,22.56
2022-07-31T14:09:17.788Z,22.57
2022-07-31T14:11:43.413Z,22.55
2022-07-31T14:14:11.430Z,22.57
2022-07-31T14:16:37.062Z,22.56
2022-07-31T14:19:02.869Z,22.57
2022-07-31T14:21:28.499Z,22.56
2022-07-31T14:23:54.136Z,22.57
2022-07-31T14:26:19.762Z,22.58
2022-07-31T14:28:45.398Z,22.56
2022-07-31T14:31:11.037Z,22.56
2022-07-31T14:33:36.763Z,22.56
2022-07-31T14:36:04.978Z,22.58
2022-07-31T14:38:30.521Z,22.57
2022-07-31T14:40:56.150Z,22.56
2022-07-31T14:43:21.785Z,22.56
2022-07-31T14:45:51.700Z,22.56
2022-07-31T14:48:17.826Z,22.56
2022-07-31T14:50:43.443Z,22.57
2022-07-31T14:53:09.805Z,22.57
2022-07-31T14:55:35.957Z,22.57
2022-07-31T14:58:01.605Z,22.57
2022-07-31T15:00:27.226Z,22.57
2022-07-31T15:02:52.905Z,22.58
2022-07-31T15:06:39.985Z,22.56
2022-07-31T15:08:04.464Z,22.57
2022-07-31T15:10:30.247Z,22.57
2022-07-31T15:12:55.874Z,22.56
2022-07-31T15:15:21.506Z,22.57
2022-07-31T15:17:47.135Z,22.57
2022-07-31T15:20:12.842Z,22.57
2022-07-31T15:22:38.509Z,22.57
2022-07-31T15:25:04.528Z,22.57
2022-07-31T15:27:30.151Z,22.57
2022-07-31T15:30:04.354Z,22.57
2022-07-31T15:32:34.261Z,22.57
2022-07-31T15:34:59.998Z,22.56
2022-07-31T15:37:25.623Z,22.56
2022-07-31T15:40:02.464Z,22.57
2022-07-31T15:42:31.432Z,22.56
2022-07-31T15:44:57.079Z,22.57
2022-07-31T15:47:22.721Z,22.56
2022-07-31T15:49:48.336Z,22.56
2022-07-31T15:52:18.823Z,22.58
2022-07-31T15:54:45.139Z,22.57
2022-07-31T15:57:10.761Z,22.58
2022-07-31T15:59:36.398Z,22.57
2022-07-31T16:02:05.525Z,22.57
2022-07-31T16:04:31.494Z,22.57
2022-07-31T16:06:57.361Z,22.58
2022-07-31T16:09:24.648Z,22.58
2022-07-31T16:12:04.322Z,22.56
2022-07-31T16:14:30.805Z,22.57
2022-07-31T16:17:02.381Z,22.57
2022-07-31T16:19:28.021Z,22.57
2022-07-31T16:21:59.474Z,22.57
2022-07-31T16:24:25.470Z,22.57
2022-07-31T16:26:51.128Z,22.58
2022-07-31T16:29:17.548Z,22.57
2022-07-31T16:31:43.430Z,22.58
2022-07-31T16:34:09.075Z,22.58
2022-07-31T16:36:34.729Z,22.58
2022-07-31T16:39:19.512Z,22.57
2022-07-31T16:41:51.971Z,22.59
2022-07-31T16:44:20.767Z,22.57
2022-07-31T16:46:47.700Z,22.57
2022-07-31T16:49:36.398Z,22.58
2022-07-31T16:52:01.481Z,22.57
2022-07-31T16:54:27.112Z,22.58
2022-07-31T16:56:52.739Z,22.57
2022-07-31T16:59:18.445Z,22.57
2022-07-31T17:01:56.796Z,22.57
2022-07-31T17:04:26.489Z,22.58
2022-07-31T17:06:52.137Z,22.56
2022-07-31T17:09:18.672Z,22.58
2022-07-31T17:11:47.243Z,22.58
2022-07-31T17:14:12.921Z,22.58
2022-07-31T17:16:39.304Z,22.58
2022-07-31T17:19:06.916Z,22.58
2022-07-31T17:21:32.541Z,22.58
2022-07-31T17:23:58.667Z,22.58
2022-07-31T17:26:24.794Z,22.58
2022-07-31T17:28:52.965Z,22.58
2022-07-31T17:31:19.118Z,22.59
2022-07-31T17:33:58.787Z,22.57
2022-07-31T17:36:26.878Z,22.58
2022-07-31T17:38:52.535Z,22.58
2022-07-31T17:41:25.114Z,22.58
2022-07-31T17:43:53.562Z,22.59
2022-07-31T17:47:07.131Z,22.58
2022-07-31T17:49:07.330Z,22.57
2022-07-31T17:51:33.023Z,22.56
2022-07-31T17:53:59.670Z,22.57
2022-07-31T17:56:25.733Z,22.57
2022-07-31T17:58:51.354Z,22.57
2022-07-31T18:01:17.065Z,22.57
2022-07-31T18:03:42.720Z,22.57
2022-07-31T18:06:08.367Z,22.56
2022-07-31T18:08:34.113Z,22.58
2022-07-31T18:10:59.802Z,22.57
2022-07-31T18:13:25.430Z,22.58
2022-07-31T18:15:51.053Z,22.57
2022-07-31T18:18:16.750Z,22.58
2022-07-31T18:20:44.357Z,22.58
2022-07-31T18:23:10.452Z,22.57
2022-07-31T18:25:36.089Z,22.57
2022-07-31T18:28:01.733Z,22.57
2022-07-31T18:30:30.333Z,22.57
2022-07-31T18:32:58.488Z,22.58
2022-07-31T18:35:24.109Z,22.57
2022-07-31T18:37:49.737Z,22.56
2022-07-31T18:40:15.366Z,22.58
2022-07-31T18:42:41.003Z,22.58
2022-07-31T18:45:07.299Z,22.59
2022-07-31T18:47:33.077Z,22.58
2022-07-31T18:51:01.207Z,22.57
2022-07-31T18:52:44.321Z,22.57
2022-07-31T18:55:10.106Z,22.58
2022-07-31T18:57:35.772Z,22.58
2022-07-31T19:00:01.629Z,22.58
2022-07-31T19:02:27.573Z,22.58
2022-07-31T19:04:53.748Z,22.58
2022-07-31T19:07:19.390Z,22.58
2022-07-31T19:09:45.178Z,22.57
2022-07-31T19:12:11.892Z,22.58
2022-07-31T19:14:37.645Z,22.58
2022-07-31T19:17:03.543Z,22.59
2022-07-31T19:19:34.675Z,22.58
2022-07-31T19:22:14.826Z,22.57
2022-07-31T19:24:40.449Z,22.57
2022-07-31T19:27:06.086Z,22.57
2022-07-31T19:29:31.752Z,22.58
2022-07-31T19:31:59.571Z,22.58
2022-07-31T19:34:25.379Z,22.58
2022-07-31T19:36:51.486Z,22.57
2022-07-31T19:39:17.113Z,22.57
2022-07-31T19:41:46.312Z,22.57
2022-07-31T19:44:28.373Z,22.57
2022-07-31T19:46:54.736Z,22.58
2022-07-31T19:49:20.416Z,22.57
2022-07-31T19:51:46.078Z,22.57
2022-07-31T19:54:11.717Z,22.58
2022-07-31T19:56:37.345Z,22.58
2022-07-31T19:59:02.997Z,22.57
2022-07-31T20:01:28.633Z,22.58
2022-07-31T20:03:56.837Z,22.58
2022-07-31T20:06:27.284Z,22.58
2022-07-31T20:08:54.566Z,22.58
2022-07-31T20:11:20.190Z,22.57
2022-07-31T20:13:45.834Z,22.57
2022-07-31T20:16:12.669Z,22.58
2022-07-31T20:18:38.292Z,22.57
2022-07-31T20:21:06.464Z,22.59
2022-07-31T20:23:33.228Z,22.58
2022-07-31T20:25:59.132Z,22.60
2022-07-31T20:28:25.533Z,22.58
2022-07-31T20:30:51.173Z,22.58
2022-07-31T20:33:16.937Z,22.58
2022-07-31T20:35:49.341Z,22.58
2022-07-31T20:38:17.889Z,22.59
2022-07-31T20:40:53.085Z,22.57
2022-07-31T20:43:19.980Z,22.58
2022-07-31T20:45:46.673Z,22.58
2022-07-31T20:48:12.989Z,22.58
2022-07-31T20:50:39.152Z,22.58
2022-07-31T20:53:05.382Z,22.57
2022-07-31T20:55:32.389Z,22.59
2022-07-31T20:57:59.148Z,22.58
2022-07-31T21:00:25.747Z,22.58
2022-07-31T21:02:54.826Z,22.58
2022-07-31T21:05:26.988Z,22.58
2022-07-31T21:07:53.018Z,22.57
2022-07-31T21:10:18.653Z,22.57
2022-07-31T21:12:44.285Z,22.57
2022-07-31T21:15:40.762Z,22.58
2022-07-31T21:17:56.934Z,22.58
2022-07-31T21:20:23.631Z,22.57
2022-07-31T21:23:09.228Z,22.57
2022-07-31T21:25:36.183Z,22.57
2022-07-31T21:28:03.389Z,22.58
2022-07-31T21:30:29.125Z,22.57
2022-07-31T21:32:54.906Z,22.58
2022-07-31T21:35:36.798Z,22.58
2022-07-31T21:38:03.549Z,22.58
2022-07-31T21:40:30.070Z,22.57
2022-07-31T21:42:57.421Z,22.57
2022-07-31T21:45:24.281Z,22.57
2022-07-31T21:47:53.522Z,22.57
2022-07-31T21:50:29.212Z,22.57
2022-07-31T21:52:55.130Z,22.56
2022-07-31T21:55:20.757Z,22.57
2022-07-31T21:57:59.398Z,22.57
2022-07-31T22:00:26.285Z,22.58
2022-07-31T22:02:54.810Z,22.58
2022-07-31T22:05:40.344Z,22.58
2022-07-31T22:08:06.095Z,22.57
2022-07-31T22:10:32.425Z,22.57
2022-07-31T22:12:58.194Z,22.57
2022-07-31T22:15:23.910Z,22.58
2022-07-31T22:17:49.539Z,22.57
2022-07-31T22:20:17.143Z,22.57
2022-07-31T22:22:44.381Z,22.57
2022-07-31T22:25:11.394Z,22.58
2022-07-31T22:27:52.238Z,22.57
2022-07-31T22:30:18.922Z,22.57
2022-07-31T22:32:44.858Z,22.57
2022-07-31T22:35:11.874Z,22.58
2022-07-31T22:37:39.347Z,22.58
2022-07-31T22:40:06.377Z,22.58
2022-07-31T22:42:32.435Z,22.57
2022-07-31T22:44:58.121Z,22.58
2022-07-31T22:47:24.670Z,22.58
2022-07-31T22:49:50.527Z,22.58
2022-07-31T22:52:16.478Z,22.58
2022-07-31T22:54:44.722Z,22.58
2022-07-31T22:57:10.667Z,22.57
2022-07-31T22:59:36.310Z,22.57
2022-07-31T23:02:04.431Z,22.57
2022-07-31T23:04:30.443Z,22.58
2022-07-31T23:06:56.071Z,22.58
2022-07-31T23:09:21.975Z,22.57
2022-07-31T23:11:47.769Z,22.57
2022-07-31T23:14:13.395Z,22.58
2022-07-31T23:16:39.044Z,22.57
2022-07-31T23:19:04.846Z,22.57
2022-07-31T23:21:30.506Z,22.57
2022-07-31T23:23:56.271Z,22.57
2022-07-31T23:26:23.518Z,22.58
2022-07-31T23:28:50.059Z,22.57
2022-07-31T23:31:16.658Z,22.58
2022-07-31T23:33:42.402Z,22.57
2022-07-31T23:36:08.035Z,22.56
2022-07-31T23:38:33.684Z,22.57
2022-07-31T23:40:59.330Z,22.57
2022-07-31T23:43:24.968Z,22.57
2022-07-31T23:45:50.938Z,22.57
2022-07-31T23:48:17.895Z,22.57
2022-07-31T23:50:43.652Z,22.57
2022-07-31T23:53:09.506Z,22.57
2022-07-31T23:55:37.800Z,22.58
2022-07-31T23:58:04.884Z,22.58
